Preview of NWS' New Version of Forecast
This preview is not operational and should not be used for support decisions.

Terminal Aerodrome Forecast (TAF)

Issued by National Weather Service (NWS)

                            
557 
FTUS42 KKEY 241444 AAA
TAFEYW
TAF AMD
KEYW 241444Z 2415/2512 12012G20KT P6SM FEW025=